Latest Weather Observations for Gatton

IDQ60801

Issued at 10:32 pm EST Thursday 26 May 2016 (issued every 30 minutes, with the page automatically refreshed every 10 minutes)

About weather observations | Map of weather stations | Latest weather observations for QLD | Other Formats
Station Details ID: 040082 Name: UNIVERSITY OF QUEENSLAND GATTON Lat: -27.54 Lon: 152.34 Height: 89.0 m
Data from the previous 72 hours. | See also: Recent months at Gatton
Date/Time
EST
Temp
°C
App
Temp
°C
Dew
Point
Rel
Hum
%
Delta-T
°C
Wind Press
QNH
hPa
Press
MSL
hPa
Rain
since 9 am
mm
Dir
 
Spd
km/h
Gust
km/h
Spd
kts
Gust
kts
26/10:30pm 20.5 17.8 15.5 73 3.0 WSW 24 33 13 18 - - 0.0
26/10:00pm 22.6 20.6 12.8 54 5.6 SW 15 22 8 12 - - 0.0
26/09:30pm 24.4 23.1 9.9 40 8.0 WNW 7 13 4 7 - - 0.0
26/09:00pm 24.9 23.0 10.4 40 8.1 NW 11 15 6 8 - - 0.0
26/08:30pm 23.9 22.6 9.9 41 7.7 NNW 7 9 4 5 - - 0.0
26/08:00pm 24.9 23.1 9.6 38 8.4 NNW 9 15 5 8 - - 0.0
26/07:30pm 26.0 23.5 9.8 36 9.0 NNW 13 15 7 8 - - 0.0
26/07:00pm 26.2 23.6 9.5 35 9.2 N 13 17 7 9 - - 0.0
26/06:30pm 26.9 25.2 9.7 34 9.6 NNW 9 13 5 7 - - 0.0
26/06:00pm 27.7 25.5 9.5 32 10.1 NW 11 17 6 9 - - 0.0
26/05:30pm 28.3 25.4 9.6 31 10.5 NW 15 20 8 11 - - 0.0
26/05:00pm 28.5 26.3 9.2 30 10.7 NW 11 19 6 10 - - 0.0
26/04:30pm 30.2 26.4 9.7 28 11.6 NW 20 39 11 21 - - 0.0
26/04:00pm 30.7 26.8 9.6 27 11.9 WNW 20 30 11 16 - - 0.0
26/03:30pm 31.4 27.0 9.0 25 12.6 NW 22 35 12 19 - - 0.0
26/03:00pm 31.5 26.8 9.1 25 12.6 W 24 37 13 20 - - 0.0
26/02:30pm 31.8 30.3 9.3 25 12.7 N 7 24 4 13 - - 0.0
26/02:00pm 29.4 27.9 8.5 27 11.5 E 6 11 3 6 - - 0.0
26/01:30pm 28.3 26.7 8.6 29 10.8 ENE 7 13 4 7 - - 0.0
26/01:00pm 26.9 25.3 8.8 32 9.9 E 7 11 4 6 - - 0.0
26/12:30pm 25.4 23.8 8.0 33 9.3 E 6 11 3 6 - - 0.0
26/12:00pm 24.1 22.2 7.7 35 8.7 ENE 7 11 4 6 - - 0.0
26/11:30am 21.7 20.3 7.2 39 7.5 ENE 4 11 2 6 - - 0.0
26/11:00am 20.1 17.9 6.1 40 7.0 NE 7 11 4 6 - - 0.0
26/10:30am 19.4 16.9 6.5 43 6.5 E 9 13 5 7 - - 0.0
26/10:00am 17.2 14.8 4.2 42 6.1 E 6 9 3 5 - - 0.0
26/09:30am 15.3 12.6 2.8 43 5.6 E 6 11 3 6 - - 0.0
26/09:00am 13.9 12.1 3.4 49 4.7 SW 2 9 1 5 - - 0.0
26/08:30am 10.7 7.9 2.0 55 3.7 WSW 6 9 3 5 - - 0.0
26/08:00am 8.6 5.7 1.5 61 2.9 W 6 9 3 5 - - 0.0
26/07:30am 6.7 3.5 1.0 67 2.3 W 7 9 4 5 - - 0.0
26/07:00am 4.6 1.3 0.2 73 1.7 W 7 11 4 6 - - 0.0
26/06:30am 4.0 0.2 -0.6 72 1.7 W 9 11 5 6 - - 0.0
26/06:00am 4.3 1.2 -0.1 73 1.7 WSW 6 9 3 5 - - 0.0
26/05:30am 4.0 0.6 -0.8 71 1.8 W 7 11 4 6 - - 0.0
26/05:00am 4.3 0.5 -1.1 68 2.0 WSW 9 11 5 6 - - 0.0
26/04:30am 4.4 0.5 -1.6 65 2.2 WSW 9 11 5 6 - - 0.0
26/04:00am 4.9 0.7 -1.1 65 2.2 W 11 13 6 7 - - 0.0
26/03:30am 5.8 2.3 -1.6 59 2.7 W 7 9 4 5 - - 0.0
26/03:00am 6.0 2.5 -1.6 58 2.8 WNW 7 11 4 6 - - 0.0
26/02:30am 5.9 2.3 -2.0 57 2.9 W 7 11 4 6 - - 0.0
26/02:00am 6.2 1.9 -1.7 57 2.9 W 11 15 6 8 - - 0.0
26/01:30am 6.3 1.6 -1.8 56 3.0 W 13 15 7 8 - - 0.0
26/01:00am 6.6 2.3 -1.8 55 3.1 W 11 15 6 8 - - 0.0
26/12:30am 7.0 2.2 -2.2 52 3.4 W 13 15 7 8 - - 0.0
26/12:00am 7.2 2.9 -2.0 52 3.4 W 11 15 6 8 - - 0.0
 
Date/Time
EST
Temp
°C
App
Temp
°C
Dew
Point
Rel
Hum
%
Delta-T
°C
Wind Press
QNH
hPa
Press
MSL
hPa
Rain
since 9 am
mm
Dir
 
Spd
km/h
Gust
km/h
Spd
kts
Gust
kts
25/11:30pm 7.9 3.6 -1.9 50 3.7 WSW 11 15 6 8 - - 0.0
25/11:00pm 8.3 4.4 -1.5 50 3.7 W 9 13 5 7 - - 0.0
25/10:30pm 8.8 4.5 -1.3 49 3.9 W 11 15 6 8 - - 0.0
25/10:00pm 9.3 5.4 -1.4 47 4.1 W 9 13 5 7 - - 0.0
25/09:30pm 7.4 3.9 -1.3 54 3.3 WSW 7 11 4 6 - - 0.0
25/09:00pm 8.0 5.2 -0.5 55 3.3 WSW 4 7 2 4 - - 0.0
25/08:30pm 9.1 7.0 -0.8 50 3.9 CALM 0 6 0 3 - - 0.0
25/08:00pm 9.0 6.9 -1.1 49 3.9 CALM 0 0 0 0 - - 0.0
25/07:30pm 11.2 9.1 -0.9 43 4.8 CALM 0 0 0 0 - - 0.0
25/07:00pm 11.7 9.4 -2.1 38 5.4 CALM 0 0 0 0 - - 0.0
25/06:30pm 12.6 10.5 -1.0 39 5.5 CALM 0 0 0 0 - - 0.0
25/06:00pm 14.5 12.2 -2.0 32 6.7 CALM 0 0 0 0 - - 0.0
25/05:30pm 16.5 14.2 -2.5 27 7.7 CALM 0 0 0 0 - - 0.0
25/05:00pm 20.0 17.7 -2.3 22 9.4 CALM 0 0 0 0 - - 0.0
25/04:30pm 23.4 19.7 -3.0 17 11.4 NNE 7 9 4 5 - - 0.0
25/04:00pm 25.4 20.9 -7.2 11 13.2 NE 9 11 5 6 - - 0.0
25/03:30pm 25.8 20.8 -8.1 10 13.6 NE 11 15 6 8 - - 0.0
25/03:00pm 26.2 21.2 -7.8 10 13.7 ENE 11 15 6 8 - - 0.0
25/02:30pm 26.4 21.6 -6.4 11 13.6 ENE 11 15 6 8 - - 0.0
25/02:00pm 26.2 22.1 -3.4 14 13.0 E 9 17 5 9 - - 0.0
25/01:30pm 26.0 21.5 -6.7 11 13.5 ENE 9 15 5 8 - - 0.0
25/01:00pm 25.8 21.8 -1.9 16 12.4 NE 9 15 5 8 - - 0.0
25/12:30pm 24.5 20.1 -5.7 13 12.5 E 9 13 5 7 - - 0.0
25/12:00pm 23.5 19.7 -0.7 20 10.9 ENE 9 15 5 8 - - 0.0
25/11:30am 22.7 18.7 -2.1 19 10.8 NNE 9 13 5 7 - - 0.0
25/11:00am 20.9 17.3 0.7 26 9.2 NNE 9 13 5 7 - - 0.0
25/10:30am 20.2 16.7 1.1 28 8.7 N 9 13 5 7 - - 0.0
25/10:00am 18.3 14.2 2.2 34 7.4 N 13 15 7 8 - - 0.0
25/09:30am 16.9 12.5 2.9 39 6.4 N 15 17 8 9 - - 0.0
25/09:00am 17.0 13.5 1.0 34 7.1 W 9 13 5 7 - - 0.0
25/08:30am 14.9 11.5 2.1 42 5.7 W 9 13 5 7 - - 0.0
25/08:00am 12.7 9.0 2.3 49 4.5 W 11 13 6 7 - - 0.0
25/07:30am 9.7 6.3 1.8 58 3.3 W 9 13 5 7 - - 0.0
25/07:00am 7.7 4.1 0.7 61 2.8 W 9 11 5 6 - - 0.0
25/06:30am 8.0 3.7 1.0 61 2.8 W 13 19 7 10 - - 0.0
25/06:00am 8.3 4.1 1.7 63 2.7 W 13 19 7 10 - - 0.0
25/05:30am 7.6 3.6 0.8 62 2.7 WSW 11 13 6 7 - - 0.0
25/05:00am 8.7 4.8 0.9 58 3.2 W 11 15 6 8 - - 0.0
25/04:30am 9.2 5.3 1.4 58 3.2 W 11 17 6 9 - - 0.0
25/04:00am 9.6 5.0 1.8 58 3.3 W 15 20 8 11 - - 0.0
25/03:30am 9.5 5.3 1.4 57 3.4 WSW 13 20 7 11 - - 0.0
25/03:00am 10.0 6.1 1.1 54 3.7 W 11 15 6 8 - - 0.0
25/02:30am 10.9 6.7 1.7 53 3.9 W 13 17 7 9 - - 0.0
25/02:00am 11.3 7.8 1.3 50 4.2 WSW 9 13 5 7 - - 0.0
25/01:30am 12.6 8.3 1.3 46 4.8 W 13 17 7 9 - - 0.0
25/01:00am 14.2 9.5 1.2 41 5.6 W 15 24 8 13 - - 0.0
25/12:30am 14.6 8.5 0.1 37 6.1 W 22 28 12 15 - - 0.0
25/12:00am 15.1 9.3 0.2 36 6.4 W 20 26 11 14 - - 0.0
 
Date/Time
EST
Temp
°C
App
Temp
°C
Dew
Point
Rel
Hum
%
Delta-T
°C
Wind Press
QNH
hPa
Press
MSL
hPa
Rain
since 9 am
mm
Dir
 
Spd
km/h
Gust
km/h
Spd
kts
Gust
kts
24/11:30pm 15.7 9.5 -0.5 33 6.8 W 22 32 12 17 - - 0.0
24/11:00pm 16.0 10.0 -1.5 30 7.3 W 20 28 11 15 - - 0.0
24/10:30pm 16.5 10.0 -2.5 27 7.7 W 22 30 12 16 - - 0.0
24/10:00pm 15.1 9.5 -2.8 29 7.2 W 17 24 9 13 - - 0.0
24/09:30pm 14.6 9.0 -3.2 29 7.0 W 17 20 9 11 - - 0.0
24/09:00pm 15.1 9.8 -3.7 27 7.4 WSW 15 17 8 9 - - 0.0
24/08:30pm 14.8 10.9 -4.5 26 7.4 W 7 13 4 7 - - 0.0
24/08:00pm 16.9 13.2 -4.9 22 8.5 W 6 11 3 6 - - 0.0
24/07:30pm 17.7 13.3 -5.5 20 9.0 WSW 9 13 5 7 - - 0.0
24/07:00pm 17.6 14.7 -4.3 22 8.7 WSW 2 9 1 5 - - 0.0
24/06:30pm 18.0 13.4 -4.0 22 8.8 W 11 15 6 8 - - 0.0
24/06:00pm 19.3 14.7 -4.2 20 9.5 WSW 11 17 6 9 - - 0.0
24/05:30pm 21.9 16.3 -6.8 14 11.3 W 15 19 8 10 - - 0.0
24/05:00pm 23.4 18.8 -3.8 16 11.5 W 11 15 6 8 - - 0.0
24/04:30pm 26.0 21.5 -3.5 14 12.9 W 11 15 6 8 - - 0.0
24/04:00pm 26.9 22.0 -3.8 13 13.4 WNW 13 19 7 10 - - 0.0
24/03:30pm 27.6 22.5 -2.3 14 13.5 W 15 20 8 11 - - 0.0
24/03:00pm 28.0 22.5 -5.2 11 14.3 WNW 15 22 8 12 - - 0.0
24/02:30pm 27.6 24.3 0.4 17 12.9 W 7 13 4 7 - - 0.0
24/02:00pm 27.4 24.6 1.8 19 12.4 WNW 6 13 3 7 - - 0.0
24/01:30pm 26.5 24.3 3.1 22 11.6 W 4 11 2 6 - - 0.0
24/01:00pm 26.2 23.9 4.6 25 10.9 WSW 6 11 3 6 - - 0.0
24/12:30pm 25.4 24.2 6.6 30 9.8 N 2 9 1 5 - - 0.0
24/12:00pm 25.3 23.4 7.4 32 9.5 WNW 7 13 4 7 - - 0.0
24/11:30am 24.5 23.0 8.5 36 8.6 SE 6 11 3 6 - - 0.0
24/11:00am 23.6 21.8 8.1 37 8.2 S 7 13 4 7 - - 0.0
24/10:30am 23.1 19.4 8.0 38 8.0 W 17 22 9 12 - - 0.0
24/10:00am 21.9 18.7 8.4 42 7.1 WSW 15 24 8 13 - - 0.0
24/09:30am 20.8 16.4 9.1 47 6.2 W 22 32 12 17 - - 0.0
24/09:00am 20.4 15.9 9.9 51 5.7 W 24 32 13 17 - - 0.0
24/08:30am 19.8 16.4 10.5 55 5.1 W 19 30 10 16 - - 0.0
24/08:00am 18.4 15.4 10.5 60 4.3 W 17 24 9 13 - - 0.0
24/07:30am 16.9 14.5 10.1 64 3.6 W 13 19 7 10 - - 0.0
24/07:00am 16.3 13.6 10.2 67 3.2 W 15 20 8 11 - - 0.0
24/06:30am 16.1 13.3 10.0 67 3.2 W 15 20 8 11 - - 0.0
24/06:00am 16.3 13.9 10.2 67 3.2 W 13 20 7 11 - - 0.0
24/05:30am 16.6 14.3 10.5 67 3.3 W 13 20 7 11 - - 0.0
24/05:00am 15.9 13.6 10.4 70 2.9 W 13 19 7 10 - - 0.0
24/04:30am 14.3 13.0 10.1 76 2.2 W 7 13 4 7 - - 0.0
24/04:00am 13.6 12.2 9.6 77 2.1 WSW 7 9 4 5 - - 0.0
24/03:30am 13.4 12.1 9.3 76 2.1 SW 6 9 3 5 - - 0.0
24/03:00am 13.6 11.8 9.6 77 2.1 W 9 11 5 6 - - 0.0
24/02:30am 14.0 12.6 9.4 74 2.4 WSW 7 9 4 5 - - 0.0
24/02:00am 14.3 12.6 9.7 74 2.4 WSW 9 13 5 7 - - 0.0
24/01:30am 14.8 12.7 9.8 72 2.6 W 11 15 6 8 - - 0.0
24/01:00am 15.1 13.5 10.1 72 2.6 W 9 13 5 7 - - 0.0
24/12:30am 14.9 13.5 9.7 71 2.7 W 7 11 4 6 - - 0.0
24/12:00am 15.4 13.7 10.0 70 2.8 W 9 13 5 7 - - 0.0
 
Date/Time
EST
Temp
°C
App
Temp
°C
Dew
Point
Rel
Hum
%
Delta-T
°C
Wind Press
QNH
hPa
Press
MSL
hPa
Rain
since 9 am
mm
Dir
 
Spd
km/h
Gust
km/h
Spd
kts
Gust
kts
23/11:30pm 15.6 13.9 9.9 69 3.0 W 9 13 5 7 - - 0.0
23/11:00pm 16.1 14.9 10.4 69 3.0 W 7 11 4 6 - - 0.0

Other Formats:

Comma delimited format used in spreadsheet applications
http://www.bom.gov.au/fwo/IDQ60801/IDQ60801.94562.axf

JavaScript Object Notation format (JSON) in row-major order
http://www.bom.gov.au/fwo/IDQ60801/IDQ60801.94562.json